Bay Shore, NY (11706)

2:49 AM EDT on August 28, 2015 (GMT -0400)
Islip | | Change Station
CLOSE
Current Station
Personal Weather Station
Location: Islip, NY
Elevation: 26 ft
Nearby Weather Stations

Elev 26 ft 40.74 °N, 73.20 °W | Updated 24 seconds ago

Clear
Clear
61.6 °F
Feels Like 61.6 °F
N
0.0
Wind Variable Wind from NW
Gusts 0.0 mph

Today
High -- | Low -- °F
--% Chance of Precip.
Yesterday
High -- | Low -- °F
Precip. -- in
6:15 AM 7:31 PM
Waxing Gibbous, 97% visible
Pressure 30.10 in
Visibility 10.0 miles
Clouds Clear
Dew Point 58 °F
Humidity 88%
Rainfall 0.00 in
Snow Depth Not available.
UV 0 out of 12
Pollen 9.30 out of 12
Air Quality Not available.
Flu Activity Not available.
METAR KISP 280556Z AUTO 36003KT 10SM CLR 17/13 A3010 RMK AO2 SLP192 T01720128 10228 20167 50004
Pressure 30.10 in
Visibility 10.0 miles
Clouds Clear
Dew Point 58 °F
Humidity 88%
Rainfall 0.00 in
Snow Depth Not available.
UV 0 out of 12
Pollen 9.30 out of 12
Air Quality Not available.
Flu Activity Not available.
METAR KISP 280556Z AUTO 36003KT 10SM CLR 17/13 A3010 RMK AO2 SLP192 T01720128 10228 20167 50004

10-Day Weather Forecast

×

Almanac

Astronomy

Aug. 28, 2015 Rise Set
Actual Time
Civil Twilight
Nautical Twilight
Astronomical Twilight
Moon
Length of Visible Light
Length of Day
Tomorrow will be .
, % of the Moon is Illuminated

Today's Extremes

State Highs State Lows

Community

WunderPhotos

Upload Photos

1,850,341 photos uploaded!

WunderBlogs® & News

Nearby

Air Quality

  Air Quality AQ Index Pollutant
Not available.

Snow Depth

Station Depth Elevation

Earthquake Activity

City Distance Mag. Time & Date
Minimum magnitude displayed is 2.5.

Coastal Water Temperatures

Place Temperature

Stations

Nearby Weather Stations

Station Location Temp. Windchill Dew Point Humidity Wind Precip. Elev Updated Type